sensor_id;sensor_type;location;lat;lon;timestamp;pressure;altitude;pressure_sealevel;temperature;humidity
12897;BME280;6516;35.028;32.372;2023-03-14T00:00:18;99413.22;;;10.51;100.00
12897;BME280;6516;35.028;32.372;2023-03-14T00:02:46;99411.66;;;10.44;100.00
12897;BME280;6516;35.028;32.372;2023-03-14T00:05:19;99413.97;;;10.54;100.00
12897;BME280;6516;35.028;32.372;2023-03-14T00:07:47;99416.16;;;10.69;100.00
12897;BME280;6516;35.028;32.372;2023-03-14T00:10:15;99406.16;;;10.80;100.00
12897;BME280;6516;35.028;32.372;2023-03-14T00:12:43;99402.38;;;10.89;100.00
12897;BME280;6516;35.028;32.372;2023-03-14T00:15:11;99405.47;;;11.01;100.00
12897;BME280;6516;35.028;32.372;2023-03-14T00:17:43;99396.28;;;11.14;100.00
12897;BME280;6516;35.028;32.372;2023-03-14T00:20:12;99395.19;;;11.22;100.00
12897;BME280;6516;35.028;32.372;2023-03-14T00:22:40;99404.59;;;11.28;100.00
12897;BME280;6516;35.028;32.372;2023-03-14T00:25:10;99400.97;;;11.32;100.00
12897;BME280;6516;35.028;32.372;2023-03-14T00:27:38;99389.75;;;11.26;100.00
12897;BME280;6516;35.028;32.372;2023-03-14T00:30:07;99395.78;;;11.31;100.00
12897;BME280;6516;35.028;32.372;2023-03-14T00:32:36;99390.53;;;11.30;100.00
12897;BME280;6516;35.028;32.372;2023-03-14T00:35:06;99384.41;;;11.29;100.00
12897;BME280;6516;35.028;32.372;2023-03-14T00:37:34;99388.63;;;11.35;100.00
12897;BME280;6516;35.028;32.372;2023-03-14T00:40:01;99391.63;;;11.23;100.00
12897;BME280;6516;35.028;32.372;2023-03-14T00:42:32;99386.72;;;11.12;100.00
12897;BME280;6516;35.028;32.372;2023-03-14T00:45:00;99376.19;;;11.12;100.00
12897;BME280;6516;35.028;32.372;2023-03-14T00:47:27;99377.13;;;11.09;100.00
12897;BME280;6516;35.028;32.372;2023-03-14T00:49:55;99380.56;;;11.13;100.00
12897;BME280;6516;35.028;32.372;2023-03-14T00:52:25;99375.16;;;11.16;100.00
12897;BME280;6516;35.028;32.372;2023-03-14T00:54:53;99377.13;;;10.83;100.00
12897;BME280;6516;35.028;32.372;2023-03-14T00:57:21;99383.47;;;10.76;100.00
12897;BME280;6516;35.028;32.372;2023-03-14T00:59:50;99378.97;;;10.80;100.00
12897;BME280;6516;35.028;32.372;2023-03-14T01:02:19;99380.47;;;10.88;100.00
12897;BME280;6516;35.028;32.372;2023-03-14T01:04:47;99374.22;;;10.93;100.00
12897;BME280;6516;35.028;32.372;2023-03-14T01:07:16;99374.97;;;10.96;100.00
12897;BME280;6516;35.028;32.372;2023-03-14T01:09:45;99376.84;;;10.93;100.00
12897;BME280;6516;35.028;32.372;2023-03-14T01:12:13;99377.63;;;10.94;100.00
12897;BME280;6516;35.028;32.372;2023-03-14T01:14:41;99381.75;;;11.03;100.00
12897;BME280;6516;35.028;32.372;2023-03-14T01:17:10;99377.72;;;10.91;100.00
12897;BME280;6516;35.028;32.372;2023-03-14T01:19:37;99386.78;;;10.83;100.00
12897;BME280;6516;35.028;32.372;2023-03-14T01:22:05;99375.09;;;10.91;100.00
12897;BME280;6516;35.028;32.372;2023-03-14T01:24:33;99381.66;;;11.06;100.00
12897;BME280;6516;35.028;32.372;2023-03-14T01:27:02;99381.34;;;11.15;100.00
12897;BME280;6516;35.028;32.372;2023-03-14T01:29:31;99373.41;;;11.17;100.00
12897;BME280;6516;35.028;32.372;2023-03-14T01:31:58;99380.34;;;11.19;100.00
12897;BME280;6516;35.028;32.372;2023-03-14T01:34:26;99378.41;;;11.24;100.00
12897;BME280;6516;35.028;32.372;2023-03-14T01:36:54;99377.75;;;11.18;100.00
12897;BME280;6516;35.028;32.372;2023-03-14T01:39:22;99375.13;;;11.18;100.00
12897;BME280;6516;35.028;32.372;2023-03-14T01:41:49;99380.34;;;11.19;100.00
12897;BME280;6516;35.028;32.372;2023-03-14T01:44:19;99379.59;;;11.16;100.00
12897;BME280;6516;35.028;32.372;2023-03-14T01:46:47;99386.59;;;11.17;100.00
12897;BME280;6516;35.028;32.372;2023-03-14T01:49:19;99383.91;;;11.18;100.00
12897;BME280;6516;35.028;32.372;2023-03-14T01:51:53;99390.13;;;11.16;100.00
12897;BME280;6516;35.028;32.372;2023-03-14T01:54:27;99393.56;;;11.18;100.00
12897;BME280;6516;35.028;32.372;2023-03-14T01:57:01;99380.47;;;11.14;100.00
12897;BME280;6516;35.028;32.372;2023-03-14T01:59:34;99379.69;;;11.13;100.00
12897;BME280;6516;35.028;32.372;2023-03-14T02:02:05;99386.66;;;11.13;100.00
12897;BME280;6516;35.028;32.372;2023-03-14T02:04:37;99386.91;;;11.06;100.00
12897;BME280;6516;35.028;32.372;2023-03-14T02:07:09;99389.63;;;11.03;100.00
12897;BME280;6516;35.028;32.372;2023-03-14T02:09:40;99384.91;;;10.86;100.00
12897;BME280;6516;35.028;32.372;2023-03-14T02:12:10;99392.16;;;10.78;100.00
12897;BME280;6516;35.028;32.372;2023-03-14T02:14:41;99387.78;;;10.79;100.00
12897;BME280;6516;35.028;32.372;2023-03-14T02:17:14;99385.09;;;10.80;100.00
12897;BME280;6516;35.028;32.372;2023-03-14T02:20:03;99391.22;;;10.81;100.00
12897;BME280;6516;35.028;32.372;2023-03-14T02:22:40;99390.28;;;10.83;100.00
12897;BME280;6516;35.028;32.372;2023-03-14T02:25:12;99389.53;;;10.78;100.00
12897;BME280;6516;35.028;32.372;2023-03-14T02:27:43;99386.06;;;10.78;100.00
12897;BME280;6516;35.028;32.372;2023-03-14T02:30:14;99387.88;;;10.76;100.00
12897;BME280;6516;35.028;32.372;2023-03-14T02:32:46;99387.81;;;10.77;100.00
12897;BME280;6516;35.028;32.372;2023-03-14T02:35:18;99391.34;;;10.78;100.00
12897;BME280;6516;35.028;32.372;2023-03-14T02:37:51;99388.75;;;10.76;100.00
12897;BME280;6516;35.028;32.372;2023-03-14T02:40:22;99384.28;;;10.78;100.00
12897;BME280;6516;35.028;32.372;2023-03-14T02:42:52;99393.03;;;10.79;100.00
12897;BME280;6516;35.028;32.372;2023-03-14T02:45:43;99396.69;;;10.75;100.00
12897;BME280;6516;35.028;32.372;2023-03-14T02:48:15;99397.59;;;10.74;100.00
12897;BME280;6516;35.028;32.372;2023-03-14T02:50:45;99394.97;;;10.74;100.00
12897;BME280;6516;35.028;32.372;2023-03-14T02:53:17;99391.38;;;10.76;100.00
12897;BME280;6516;35.028;32.372;2023-03-14T02:55:46;99393.22;;;10.74;100.00
12897;BME280;6516;35.028;32.372;2023-03-14T02:58:16;99393.13;;;10.76;100.00
12897;BME280;6516;35.028;32.372;2023-03-14T03:00:45;99403.91;;;10.68;100.00
12897;BME280;6516;35.028;32.372;2023-03-14T03:03:13;99406.44;;;10.71;100.00
12897;BME280;6516;35.028;32.372;2023-03-14T03:05:41;99408.44;;;10.63;100.00
12897;BME280;6516;35.028;32.372;2023-03-14T03:08:10;99417.19;;;10.65;100.00
12897;BME280;6516;35.028;32.372;2023-03-14T03:10:37;99409.44;;;10.59;100.00
12897;BME280;6516;35.028;32.372;2023-03-14T03:13:05;99409.44;;;10.59;100.00
12897;BME280;6516;35.028;32.372;2023-03-14T03:15:34;99418.22;;;10.60;100.00
12897;BME280;6516;35.028;32.372;2023-03-14T03:18:02;99422.59;;;10.59;100.00
12897;BME280;6516;35.028;32.372;2023-03-14T03:20:30;99422.53;;;10.62;100.00
12897;BME280;6516;35.028;32.372;2023-03-14T03:22:58;99425.16;;;10.62;100.00
12897;BME280;6516;35.028;32.372;2023-03-14T03:25:27;99422.72;;;10.56;100.00
12897;BME280;6516;35.028;32.372;2023-03-14T03:27:55;99424.44;;;10.57;100.00
12897;BME280;6516;35.028;32.372;2023-03-14T03:30:23;99421.84;;;10.56;100.00
12897;BME280;6516;35.028;32.372;2023-03-14T03:32:52;99424.38;;;10.59;100.00
12897;BME280;6516;35.028;32.372;2023-03-14T03:35:20;99419.06;;;10.60;100.00
12897;BME280;6516;35.028;32.372;2023-03-14T03:37:47;99429.50;;;10.63;100.00
12897;BME280;6516;35.028;32.372;2023-03-14T03:40:15;99428.34;;;10.72;100.00
12897;BME280;6516;35.028;32.372;2023-03-14T03:42:43;99429.41;;;10.66;100.00
12897;BME280;6516;35.028;32.372;2023-03-14T03:45:11;99422.31;;;10.68;100.00
12897;BME280;6516;35.028;32.372;2023-03-14T03:47:39;99429.19;;;10.74;100.00
12897;BME280;6516;35.028;32.372;2023-03-14T03:50:09;99427.06;;;10.85;100.00
12897;BME280;6516;35.028;32.372;2023-03-14T03:52:37;99426.22;;;10.84;100.00
12897;BME280;6516;35.028;32.372;2023-03-14T03:55:05;99425.31;;;10.85;100.00
12897;BME280;6516;35.028;32.372;2023-03-14T03:57:33;99427.19;;;10.82;100.00
12897;BME280;6516;35.028;32.372;2023-03-14T04:00:02;99426.31;;;10.81;100.00
12897;BME280;6516;35.028;32.372;2023-03-14T04:02:31;99424.78;;;10.74;100.00
12897;BME280;6516;35.028;32.372;2023-03-14T04:04:59;99424.13;;;10.68;100.00
12897;BME280;6516;35.028;32.372;2023-03-14T04:07:31;99430.19;;;10.70;100.00
12897;BME280;6516;35.028;32.372;2023-03-14T04:09:59;99426.69;;;10.69;100.00
12897;BME280;6516;35.028;32.372;2023-03-14T04:12:26;99424.13;;;10.68;100.00
12897;BME280;6516;35.028;32.372;2023-03-14T04:14:54;99419.66;;;10.70;100.00
12897;BME280;6516;35.028;32.372;2023-03-14T04:17:22;99424.72;;;10.76;100.00
12897;BME280;6516;35.028;32.372;2023-03-14T04:19:50;99420.09;;;10.84;100.00
12897;BME280;6516;35.028;32.372;2023-03-14T04:22:19;99425.06;;;10.93;100.00
12897;BME280;6516;35.028;32.372;2023-03-14T04:24:48;99432.03;;;10.95;100.00
12897;BME280;6516;35.028;32.372;2023-03-14T04:27:16;99426.75;;;10.95;100.00
12897;BME280;6516;35.028;32.372;2023-03-14T04:29:44;99428.59;;;10.93;100.00
12897;BME280;6516;35.028;32.372;2023-03-14T04:32:12;99428.53;;;10.95;100.00
12897;BME280;6516;35.028;32.372;2023-03-14T04:34:39;99434.56;;;10.98;100.00
12897;BME280;6516;35.028;32.372;2023-03-14T04:37:08;99430.94;;;11.02;100.00
12897;BME280;6516;35.028;32.372;2023-03-14T04:39:36;99429.81;;;11.09;100.00
12897;BME280;6516;35.028;32.372;2023-03-14T04:42:05;99424.25;;;11.18;100.00
12897;BME280;6516;35.028;32.372;2023-03-14T04:44:33;99434.41;;;11.31;100.00
12897;BME280;6516;35.028;32.372;2023-03-14T04:47:01;99435.03;;;11.39;100.00
12897;BME280;6516;35.028;32.372;2023-03-14T04:49:29;99434.56;;;11.52;100.00
12897;BME280;6516;35.028;32.372;2023-03-14T04:51:56;99435.88;;;11.67;100.00
12897;BME280;6516;35.028;32.372;2023-03-14T04:54:24;99444.78;;;11.89;100.00
12897;BME280;6516;35.028;32.372;2023-03-14T04:56:52;99444.91;;;12.10;100.00
12897;BME280;6516;35.028;32.372;2023-03-14T04:59:21;99449.47;;;12.30;100.00
12897;BME280;6516;35.028;32.372;2023-03-14T05:01:49;99443.63;;;12.45;100.00
12897;BME280;6516;35.028;32.372;2023-03-14T05:04:17;99443.97;;;12.59;100.00
12897;BME280;6516;35.028;32.372;2023-03-14T05:06:45;99446.97;;;12.73;100.00
12897;BME280;6516;35.028;32.372;2023-03-14T05:09:12;99442.03;;;12.87;100.00
12897;BME280;6516;35.028;32.372;2023-03-14T05:11:40;99445.72;;;13.06;100.00
12897;BME280;6516;35.028;32.372;2023-03-14T05:14:08;99446.88;;;13.20;100.00
12897;BME280;6516;35.028;32.372;2023-03-14T05:16:38;99451.75;;;13.31;100.00
12897;BME280;6516;35.028;32.372;2023-03-14T05:19:05;99449.31;;;13.48;100.00
12897;BME280;6516;35.028;32.372;2023-03-14T05:21:33;99455.44;;;13.70;100.00
12897;BME280;6516;35.028;32.372;2023-03-14T05:24:01;99452.69;;;13.93;100.00
12897;BME280;6516;35.028;32.372;2023-03-14T05:26:30;99458.63;;;14.18;100.00
12897;BME280;6516;35.028;32.372;2023-03-14T05:28:57;99459.59;;;14.37;100.00
12897;BME280;6516;35.028;32.372;2023-03-14T05:31:25;99471.00;;;14.57;100.00
12897;BME280;6516;35.028;32.372;2023-03-14T05:33:54;99470.28;;;14.74;99.17
12897;BME280;6516;35.028;32.372;2023-03-14T05:36:22;99475.16;;;14.83;93.36
12897;BME280;6516;35.028;32.372;2023-03-14T05:38:50;99468.84;;;15.04;93.66
12897;BME280;6516;35.028;32.372;2023-03-14T05:41:18;99474.22;;;15.21;89.72
12897;BME280;6516;35.028;32.372;2023-03-14T05:43:46;99479.44;;;15.59;91.90
12897;BME280;6516;35.028;32.372;2023-03-14T05:46:13;99474.34;;;15.90;90.34
12897;BME280;6516;35.028;32.372;2023-03-14T05:48:41;99485.50;;;16.14;87.32
12897;BME280;6516;35.028;32.372;2023-03-14T05:51:10;99483.97;;;16.27;82.76
12897;BME280;6516;35.028;32.372;2023-03-14T05:53:39;99487.00;;;16.36;80.52
12897;BME280;6516;35.028;32.372;2023-03-14T05:56:08;99483.47;;;16.36;78.72
12897;BME280;6516;35.028;32.372;2023-03-14T05:58:36;99484.59;;;16.15;77.24
12897;BME280;6516;35.028;32.372;2023-03-14T06:01:05;99485.63;;;16.12;78.38
12897;BME280;6516;35.028;32.372;2023-03-14T06:03:36;99485.28;;;16.18;79.19
12897;BME280;6516;35.028;32.372;2023-03-14T06:06:04;99484.28;;;16.21;78.75
12897;BME280;6516;35.028;32.372;2023-03-14T06:08:33;99490.25;;;16.43;79.43
12897;BME280;6516;35.028;32.372;2023-03-14T06:11:02;99488.94;;;16.67;78.11
12897;BME280;6516;35.028;32.372;2023-03-14T06:13:31;99486.81;;;17.06;77.93
12897;BME280;6516;35.028;32.372;2023-03-14T06:15:58;99480.94;;;17.47;77.01
12897;BME280;6516;35.028;32.372;2023-03-14T06:18:26;99466.81;;;17.92;76.41
12897;BME280;6516;35.028;32.372;2023-03-14T06:20:54;99466.09;;;18.33;74.91
12897;BME280;6516;35.028;32.372;2023-03-14T06:23:22;99477.66;;;18.62;71.32
12897;BME280;6516;35.028;32.372;2023-03-14T06:25:52;99469.69;;;18.76;67.05
12897;BME280;6516;35.028;32.372;2023-03-14T06:28:21;99471.78;;;18.99;65.89
12897;BME280;6516;35.028;32.372;2023-03-14T06:30:48;99470.75;;;19.29;67.07
12897;BME280;6516;35.028;32.372;2023-03-14T06:33:16;99472.97;;;19.76;66.08
12897;BME280;6516;35.028;32.372;2023-03-14T06:35:44;99469.53;;;20.01;66.02
12897;BME280;6516;35.028;32.372;2023-03-14T06:38:12;99464.94;;;20.17;66.52
12897;BME280;6516;35.028;32.372;2023-03-14T06:40:39;99468.81;;;20.38;64.10
12897;BME280;6516;35.028;32.372;2023-03-14T06:43:09;99474.19;;;20.50;64.07
12897;BME280;6516;35.028;32.372;2023-03-14T06:45:36;99474.38;;;20.47;64.55
12897;BME280;6516;35.028;32.372;2023-03-14T06:48:05;99474.50;;;20.58;65.17
12897;BME280;6516;35.028;32.372;2023-03-14T06:50:32;99466.06;;;20.52;65.20
12897;BME280;6516;35.028;32.372;2023-03-14T06:53:00;99473.94;;;20.41;63.82
12897;BME280;6516;35.028;32.372;2023-03-14T06:55:28;99474.31;;;20.10;64.09
12897;BME280;6516;35.028;32.372;2023-03-14T06:57:56;99477.53;;;19.88;66.76
12897;BME280;6516;35.028;32.372;2023-03-14T07:00:25;99472.47;;;19.57;68.26
12897;BME280;6516;35.028;32.372;2023-03-14T07:02:53;99472.34;;;19.18;69.83
12897;BME280;6516;35.028;32.372;2023-03-14T07:05:21;99482.25;;;18.88;71.07
12897;BME280;6516;35.028;32.372;2023-03-14T07:07:49;99477.50;;;18.65;72.76
12897;BME280;6516;35.028;32.372;2023-03-14T07:10:17;99484.50;;;18.38;72.25
12897;BME280;6516;35.028;32.372;2023-03-14T07:12:45;99487.84;;;18.26;73.64
12897;BME280;6516;35.028;32.372;2023-03-14T07:15:13;99475.47;;;18.54;74.59
12897;BME280;6516;35.028;32.372;2023-03-14T07:17:43;99466.53;;;19.11;75.20
12897;BME280;6516;35.028;32.372;2023-03-14T07:20:11;99468.50;;;19.22;72.01
12897;BME280;6516;35.028;32.372;2023-03-14T07:22:39;99464.53;;;19.29;71.58
12897;BME280;6516;35.028;32.372;2023-03-14T07:25:07;99473.09;;;19.34;71.42
12897;BME280;6516;35.028;32.372;2023-03-14T07:27:37;99480.56;;;19.29;71.16
12897;BME280;6516;35.028;32.372;2023-03-14T07:30:06;99482.00;;;19.06;70.99
12897;BME280;6516;35.028;32.372;2023-03-14T07:32:34;99488.75;;;18.84;71.63
12897;BME280;6516;35.028;32.372;2023-03-14T07:35:05;99491.00;;;18.62;72.32
12897;BME280;6516;35.028;32.372;2023-03-14T07:37:34;99489.75;;;18.24;72.43
12897;BME280;6516;35.028;32.372;2023-03-14T07:40:02;99491.75;;;17.91;71.66
12897;BME280;6516;35.028;32.372;2023-03-14T07:42:32;99491.06;;;17.56;72.25
12897;BME280;6516;35.028;32.372;2023-03-14T07:45:00;99495.50;;;17.25;72.74
12897;BME280;6516;35.028;32.372;2023-03-14T07:47:28;99505.09;;;17.12;73.63
12897;BME280;6516;35.028;32.372;2023-03-14T07:49:56;99506.00;;;16.95;74.67
12897;BME280;6516;35.028;32.372;2023-03-14T07:52:25;99504.09;;;16.82;74.31
12897;BME280;6516;35.028;32.372;2023-03-14T07:54:53;99514.44;;;16.71;73.82
12897;BME280;6516;35.028;32.372;2023-03-14T07:57:21;99517.56;;;16.62;74.01
12897;BME280;6516;35.028;32.372;2023-03-14T07:59:49;99512.41;;;16.59;75.71
12897;BME280;6516;35.028;32.372;2023-03-14T08:02:17;99508.03;;;16.58;75.84
12897;BME280;6516;35.028;32.372;2023-03-14T08:04:48;99515.94;;;16.59;77.15
12897;BME280;6516;35.028;32.372;2023-03-14T08:07:16;99512.09;;;16.65;76.79
12897;BME280;6516;35.028;32.372;2023-03-14T08:09:45;99513.34;;;16.75;76.13
12897;BME280;6516;35.028;32.372;2023-03-14T08:12:13;99515.03;;;16.93;74.48
12897;BME280;6516;35.028;32.372;2023-03-14T08:14:41;99512.88;;;16.99;72.50
12897;BME280;6516;35.028;32.372;2023-03-14T08:17:09;99508.72;;;17.11;72.84
12897;BME280;6516;35.028;32.372;2023-03-14T08:19:37;99516.41;;;17.15;71.17
12897;BME280;6516;35.028;32.372;2023-03-14T08:22:05;99515.25;;;17.21;71.97
12897;BME280;6516;35.028;32.372;2023-03-14T08:24:33;99516.72;;;17.26;71.90
12897;BME280;6516;35.028;32.372;2023-03-14T08:27:02;99520.66;;;17.35;71.24
12897;BME280;6516;35.028;32.372;2023-03-14T08:29:30;99513.75;;;17.48;71.14
12897;BME280;6516;35.028;32.372;2023-03-14T08:31:58;99509.19;;;17.65;70.99
12897;BME280;6516;35.028;32.372;2023-03-14T08:34:26;99512.94;;;17.77;69.58
12897;BME280;6516;35.028;32.372;2023-03-14T08:36:54;99508.84;;;17.71;69.04
12897;BME280;6516;35.028;32.372;2023-03-14T08:39:22;99510.06;;;17.66;69.16
12897;BME280;6516;35.028;32.372;2023-03-14T08:41:50;99502.06;;;17.81;68.69
12897;BME280;6516;35.028;32.372;2023-03-14T08:44:19;99505.19;;;18.03;68.63
12897;BME280;6516;35.028;32.372;2023-03-14T08:46:47;99497.44;;;18.14;68.11
12897;BME280;6516;35.028;32.372;2023-03-14T08:49:15;99500.31;;;18.41;67.90
12897;BME280;6516;35.028;32.372;2023-03-14T08:51:42;99500.16;;;18.72;68.83
12897;BME280;6516;35.028;32.372;2023-03-14T08:54:10;99498.56;;;18.97;68.43
12897;BME280;6516;35.028;32.372;2023-03-14T08:56:39;99505.03;;;19.21;68.71
12897;BME280;6516;35.028;32.372;2023-03-14T08:59:07;99500.47;;;19.37;67.74
12897;BME280;6516;35.028;32.372;2023-03-14T09:01:38;99503.59;;;19.44;68.57
12897;BME280;6516;35.028;32.372;2023-03-14T09:04:05;99503.22;;;19.50;68.50
12897;BME280;6516;35.028;32.372;2023-03-14T09:06:33;99498.53;;;19.80;67.37
12897;BME280;6516;35.028;32.372;2023-03-14T09:09:01;99500.13;;;20.23;66.38
12897;BME280;6516;35.028;32.372;2023-03-14T09:11:30;99500.94;;;20.63;65.45
12897;BME280;6516;35.028;32.372;2023-03-14T09:13:59;99497.31;;;21.14;64.47
12897;BME280;6516;35.028;32.372;2023-03-14T09:16:26;99488.63;;;21.71;63.64
12897;BME280;6516;35.028;32.372;2023-03-14T09:18:56;99488.94;;;22.03;60.81
12897;BME280;6516;35.028;32.372;2023-03-14T09:21:25;99490.44;;;22.41;60.80
12897;BME280;6516;35.028;32.372;2023-03-14T09:23:53;99491.25;;;22.65;60.17
12897;BME280;6516;35.028;32.372;2023-03-14T09:26:21;99491.03;;;22.79;59.09
12897;BME280;6516;35.028;32.372;2023-03-14T09:28:49;99483.97;;;22.78;57.68
12897;BME280;6516;35.028;32.372;2023-03-14T09:31:17;99492.91;;;22.44;57.12
12897;BME280;6516;35.028;32.372;2023-03-14T09:33:45;99487.34;;;22.00;58.80
12897;BME280;6516;35.028;32.372;2023-03-14T09:36:14;99492.13;;;21.48;60.13
12897;BME280;6516;35.028;32.372;2023-03-14T09:38:43;99493.16;;;20.97;60.42
12897;BME280;6516;35.028;32.372;2023-03-14T09:41:14;99486.69;;;20.37;63.16
12897;BME280;6516;35.028;32.372;2023-03-14T09:43:45;99487.69;;;19.96;63.16
12897;BME280;6516;35.028;32.372;2023-03-14T09:46:16;99488.88;;;19.65;65.19
12897;BME280;6516;35.028;32.372;2023-03-14T09:48:45;99493.13;;;19.41;65.81
12897;BME280;6516;35.028;32.372;2023-03-14T09:51:17;99489.31;;;19.03;67.96
12897;BME280;6516;35.028;32.372;2023-03-14T09:53:48;99489.69;;;18.83;70.12
12897;BME280;6516;35.028;32.372;2023-03-14T09:56:19;99484.31;;;18.41;72.68
12897;BME280;6516;35.028;32.372;2023-03-14T09:58:52;99471.06;;;18.10;75.29
12897;BME280;6516;35.028;32.372;2023-03-14T10:01:24;99460.94;;;17.71;77.19
12897;BME280;6516;35.028;32.372;2023-03-14T10:03:55;99470.56;;;17.43;78.44
12897;BME280;6516;35.028;32.372;2023-03-14T10:06:27;99464.16;;;17.14;79.90
12897;BME280;6516;35.028;32.372;2023-03-14T10:08:56;99454.81;;;16.92;79.65
12897;BME280;6516;35.028;32.372;2023-03-14T10:11:24;99455.50;;;16.63;81.28
12897;BME280;6516;35.028;32.372;2023-03-14T10:14:04;99474.75;;;16.34;82.49
12897;BME280;6516;35.028;32.372;2023-03-14T10:16:35;99493.88;;;16.23;82.76
12897;BME280;6516;35.028;32.372;2023-03-14T10:19:07;99503.03;;;16.01;85.44
12897;BME280;6516;35.028;32.372;2023-03-14T10:21:43;99506.91;;;15.94;87.66
12897;BME280;6516;35.028;32.372;2023-03-14T10:24:20;99516.03;;;15.71;89.11
12897;BME280;6516;35.028;32.372;2023-03-14T10:26:49;99504.38;;;14.61;88.45
12897;BME280;6516;35.028;32.372;2023-03-14T13:44:45;99370.38;;;17.57;97.32
12897;BME280;6516;35.028;32.372;2023-03-14T13:47:17;99380.56;;;17.65;96.46
12897;BME280;6516;35.028;32.372;2023-03-14T13:49:48;99374.94;;;17.99;87.52
12897;BME280;6516;35.028;32.372;2023-03-14T13:52:29;99374.38;;;18.08;78.84
12897;BME280;6516;35.028;32.372;2023-03-14T13:55:00;99382.75;;;18.02;77.80
12897;BME280;6516;35.028;32.372;2023-03-14T13:57:43;99381.50;;;17.93;73.44
12897;BME280;6516;35.028;32.372;2023-03-14T14:00:22;99376.19;;;18.07;73.08
12897;BME280;6516;35.028;32.372;2023-03-14T14:02:53;99371.41;;;18.42;69.84
12897;BME280;6516;35.028;32.372;2023-03-14T14:05:23;99365.16;;;18.27;70.47
12897;BME280;6516;35.028;32.372;2023-03-14T14:07:53;99359.34;;;18.07;73.65
12897;BME280;6516;35.028;32.372;2023-03-14T14:10:22;99356.84;;;18.04;73.50
12897;BME280;6516;35.028;32.372;2023-03-14T14:12:53;99355.16;;;18.03;73.30
12897;BME280;6516;35.028;32.372;2023-03-14T14:15:27;99351.53;;;18.04;72.55
12897;BME280;6516;35.028;32.372;2023-03-14T14:17:58;99349.53;;;17.93;75.04
12897;BME280;6516;35.028;32.372;2023-03-14T14:20:30;99338.88;;;17.93;75.02
12897;BME280;6516;35.028;32.372;2023-03-14T14:23:01;99335.81;;;17.85;74.11
12897;BME280;6516;35.028;32.372;2023-03-14T14:25:30;99335.50;;;17.76;74.65
12897;BME280;6516;35.028;32.372;2023-03-14T14:27:59;99336.63;;;17.72;75.63
12897;BME280;6516;35.028;32.372;2023-03-14T14:30:42;99340.41;;;17.68;74.73
12897;BME280;6516;35.028;32.372;2023-03-14T14:33:21;99342.50;;;17.63;75.48
12897;BME280;6516;35.028;32.372;2023-03-14T14:35:55;99335.63;;;17.59;76.78
12897;BME280;6516;35.028;32.372;2023-03-14T14:38:24;99338.25;;;17.45;75.71
12897;BME280;6516;35.028;32.372;2023-03-14T14:40:54;99335.94;;;17.39;76.85
12897;BME280;6516;35.028;32.372;2023-03-14T14:43:28;99335.78;;;17.26;77.66
12897;BME280;6516;35.028;32.372;2023-03-14T14:45:59;99329.88;;;17.21;77.11
12897;BME280;6516;35.028;32.372;2023-03-14T14:48:29;99336.75;;;17.10;78.37
12897;BME280;6516;35.028;32.372;2023-03-14T14:51:06;99348.59;;;17.04;79.24
12897;BME280;6516;35.028;32.372;2023-03-14T14:53:37;99344.66;;;16.96;79.51
12897;BME280;6516;35.028;32.372;2023-03-14T14:56:14;99346.09;;;16.86;79.28
12897;BME280;6516;35.028;32.372;2023-03-14T14:58:46;99343.78;;;16.80;78.61
12897;BME280;6516;35.028;32.372;2023-03-14T15:01:17;99343.56;;;16.69;77.56
12897;BME280;6516;35.028;32.372;2023-03-14T15:03:48;99335.47;;;16.55;77.09
12897;BME280;6516;35.028;32.372;2023-03-14T15:06:18;99343.25;;;16.42;77.89
12897;BME280;6516;35.028;32.372;2023-03-14T15:08:48;99342.94;;;16.31;78.41
12897;BME280;6516;35.028;32.372;2023-03-14T15:11:17;99344.59;;;16.17;79.48
12897;BME280;6516;35.028;32.372;2023-03-14T15:13:46;99346.19;;;16.04;80.61
12897;BME280;6516;35.028;32.372;2023-03-14T15:16:17;99345.22;;;15.89;81.82
12897;BME280;6516;35.028;32.372;2023-03-14T15:18:54;99345.91;;;15.76;82.15
12897;BME280;6516;35.028;32.372;2023-03-14T15:21:23;99354.50;;;15.64;83.09
12897;BME280;6516;35.028;32.372;2023-03-14T15:23:52;99354.44;;;15.48;81.91
12897;BME280;6516;35.028;32.372;2023-03-14T15:26:22;99360.44;;;15.33;80.57
12897;BME280;6516;35.028;32.372;2023-03-14T15:28:51;99362.94;;;15.19;82.78
12897;BME280;6516;35.028;32.372;2023-03-14T15:31:21;99359.88;;;15.10;83.11
12897;BME280;6516;35.028;32.372;2023-03-14T15:33:49;99370.94;;;15.01;83.32
12897;BME280;6516;35.028;32.372;2023-03-14T15:36:21;99370.50;;;14.91;83.98
12897;BME280;6516;35.028;32.372;2023-03-14T15:38:51;99370.81;;;14.85;85.01
12897;BME280;6516;35.028;32.372;2023-03-14T15:41:21;99372.88;;;14.79;86.02
12897;BME280;6516;35.028;32.372;2023-03-14T15:43:49;99372.31;;;14.72;86.26
12897;BME280;6516;35.028;32.372;2023-03-14T15:46:17;99368.28;;;14.64;87.66
12897;BME280;6516;35.028;32.372;2023-03-14T15:48:47;99367.06;;;14.52;87.13
12897;BME280;6516;35.028;32.372;2023-03-14T15:51:15;99366.63;;;14.43;86.98
12897;BME280;6516;35.028;32.372;2023-03-14T15:53:44;99367.06;;;14.34;87.07
12897;BME280;6516;35.028;32.372;2023-03-14T15:56:13;99361.47;;;14.21;87.19
12897;BME280;6516;35.028;32.372;2023-03-14T15:58:43;99352.16;;;14.11;88.09
12897;BME280;6516;35.028;32.372;2023-03-14T16:01:13;99356.16;;;14.01;88.86
12897;BME280;6516;35.028;32.372;2023-03-14T16:03:43;99347.97;;;13.87;89.35
12897;BME280;6516;35.028;32.372;2023-03-14T16:06:13;99340.78;;;13.89;87.90
12897;BME280;6516;35.028;32.372;2023-03-14T16:08:41;99332.81;;;13.71;87.80
12897;BME280;6516;35.028;32.372;2023-03-14T16:11:09;99332.56;;;13.57;88.61
12897;BME280;6516;35.028;32.372;2023-03-14T16:13:38;99332.91;;;13.49;88.35
12897;BME280;6516;35.028;32.372;2023-03-14T16:16:07;99337.59;;;13.43;88.97
12897;BME280;6516;35.028;32.372;2023-03-14T16:18:38;99338.88;;;13.33;89.68
12897;BME280;6516;35.028;32.372;2023-03-14T16:21:08;99339.41;;;13.41;87.76